Quincy, WA

4:59 PM PST on December 21, 2014 (GMT -0800)
Bowers | Change Station
CLOSE
Current Station
Airport
Location: Ellensburg,
Elevation: 1762 ft
Nearby Weather Stations

Elev 1762 ft 47.03 °N, 120.53 °W | Updated 6 minutes ago

Partly Cloudy
Partly Cloudy
45 °F
Feels Like 42 °F
N
6
Wind Variable Wind from West

Today
High -- | Low -- °F
--% Chance of Precip.
Yesterday
High -- | Low -- °F
Precip. -- in
7:43 AM 4:12 PM
Waning Crescent, 0% visible
Pressure 30.00 in
Visibility 10.0 miles
Clouds Few 6500 ft
Scattered Clouds 8000 ft
Mostly Cloudy 11000 ft
Windchill 42 °F
Dew Point 38 °F
Humidity 76%
Rainfall 0.07 in
Snow Depth Not available.
UV 0 out of 12
Pollen .50 out of 12
Air Quality Not available.
Flu Activity Not available.
METAR KELN 220053Z AUTO 28005KT 10SM FEW065 SCT080 BKN110 07/03 A2998 RMK AO2 RAB18E28 SLP158 P0000 T00720033

More Conditions Fewer Conditions

Pressure 30.00 in
Visibility 10.0 miles
Clouds Few 6500 ft
Scattered Clouds 8000 ft
Mostly Cloudy 11000 ft
Windchill 42 °F
Dew Point 38 °F
Humidity 76%
Rainfall 0.07 in
Snow Depth Not available.
UV 0 out of 12
Pollen .50 out of 12
Air Quality Not available.
Flu Activity Not available.
METAR KELN 220053Z AUTO 28005KT 10SM FEW065 SCT080 BKN110 07/03 A2998 RMK AO2 RAB18E28 SLP158 P0000 T00720033

More Conditions Fewer Conditions

10-Day Weather Forecast

Almanac

Astronomy

Dec. 21, 2014 Rise Set
Actual Time
Civil Twilight
Nautical Twilight
Astronomical Twilight
Moon
Length of Visible Light
Length of Day
Tomorrow will be .
, % of the Moon is Illuminated

Today's Extremes

State Highs State Lows

Community

WunderPhotos

Upload Photos

1,779,509 photos uploaded!

WunderBlogs® & News

Nearby

Air Quality

  Air Quality AQ Index Pollutant
Not available.

Snow Depth

Station Depth Elevation

Earthquake Activity

City Distance Mag. Time & Date
Minimum magnitude displayed is 2.5.

Coastal Water Temperatures

Place Temperature

Nearby Weather Stations